El Sobrante Hills, CA

12:44 PM PST on December 07, 2016 (GMT -0800)
Glorietta Area | | Change Station

Elev 820 ft 37.87 °N, 122.17 °W | Updated 3 minutes ago

Mostly Cloudy
Mostly Cloudy
45.4 °F
Feels Like 45.4 °F
N
1.0
Wind Variable Wind from ESE
Gusts 1.0 mph

Today
High -- | Low -- °F
--% Chance of Precip.
Yesterday
High -- | Low -- °F
Precip. -- in
Pressure 30.14 in
Visibility 10.0 miles
Clouds Mostly Cloudy 9500 ft
Mostly Cloudy 12000 ft
Dew Point 26.8 °F
Humidity 48%
Rainfall 0.00 in
Snow Depth Not available.
7:12 AM 4:49 PM
First Quarter, 55% visible
METAR KCCR 071953Z 36004KT 10SM BKN095 BKN120 09/M04 A3019 RMK AO2 SLP207 T00941039
Pressure 30.14 in
Visibility 10.0 miles
Clouds Mostly Cloudy 9500 ft
Mostly Cloudy 12000 ft
Dew Point 26.8 °F
Humidity 48%
Rainfall 0.00 in
Snow Depth Not available.
7:12 AM 4:49 PM
First Quarter, 55% visible
METAR KCCR 071953Z 36004KT 10SM BKN095 BKN120 09/M04 A3019 RMK AO2 SLP207 T00941039

10-Day Weather Forecast

Almanac

Astronomy

Dec. 07, 2016 Rise Set
Actual Time
Civil Twilight
Nautical Twilight
Astronomical Twilight
Moon
Length of Visible Light
Length of Day
Tomorrow will be .
, % of the Moon is Illuminated

Today's Extremes

State Highs State Lows

Community

WunderPhotos

Upload Photos

1,956,170 photos uploaded!

WunderBlog® & News

Nearby

Air Quality

  Air Quality AQ Index Pollutant
Not available.

Snow Depth

Station Depth Elevation

Earthquake Activity

City Distance Mag. Time & Date
Minimum magnitude displayed is 2.5.

Coastal Water Temperatures

Place Temperature

Stations

Nearby Weather Stations

Station Location Temp. Windchill Dew Point Humidity Wind Precip. Elev Updated Type
                   

Watches & Warnings

There are currently no watches in effect.